createdAt,value
2018-09-13T00:01:13.029Z,43.17
2018-09-13T00:11:15.581Z,43.98
2018-09-13T00:21:18.038Z,43.94
2018-09-13T00:31:20.729Z,43.57
2018-09-13T00:41:23.297Z,44.25
2018-09-13T00:51:25.797Z,43.76
2018-09-13T01:01:28.451Z,44.36
2018-09-13T01:11:30.871Z,43.36
2018-09-13T01:21:33.469Z,44.21
2018-09-13T01:31:36.002Z,44.20
2018-09-13T01:41:38.756Z,44.06
2018-09-13T01:51:41.218Z,44.21
2018-09-13T02:01:43.709Z,44.34
2018-09-13T02:11:46.356Z,43.80
2018-09-13T02:21:48.901Z,44.38
2018-09-13T02:31:51.479Z,44.39
2018-09-13T02:41:54.176Z,44.11
2018-09-13T02:51:56.968Z,43.88
2018-09-13T03:01:59.488Z,43.93
2018-09-13T03:12:01.999Z,43.77
2018-09-13T03:22:04.479Z,44.09
2018-09-13T03:32:06.962Z,44.46
2018-09-13T03:42:09.589Z,44.05
2018-09-13T03:52:12.260Z,44.05
2018-09-13T04:02:14.805Z,43.54
2018-09-13T04:12:17.277Z,43.62
2018-09-13T04:22:19.809Z,44.42
2018-09-13T04:32:22.144Z,44.20
2018-09-13T04:42:24.677Z,44.14
2018-09-13T04:52:27.225Z,44.40
2018-09-13T05:02:29.647Z,44.09
2018-09-13T05:12:32.102Z,44.42
2018-09-13T05:22:34.629Z,43.59
2018-09-13T05:32:37.152Z,44.08
2018-09-13T05:42:39.557Z,43.95
2018-09-13T05:52:41.941Z,43.50
2018-09-13T06:02:44.528Z,43.61
2018-09-13T06:12:46.995Z,43.70
2018-09-13T06:22:49.555Z,43.57
2018-09-13T06:32:52.085Z,43.94
2018-09-13T06:42:54.516Z,44.50
2018-09-13T06:52:56.951Z,45.19
2018-09-13T07:02:59.368Z,44.48
2018-09-13T07:13:01.779Z,48.98
2018-09-13T07:23:04.231Z,48.71
2018-09-13T07:33:06.741Z,50.33
2018-09-13T07:43:09.086Z,49.67
2018-09-13T07:53:11.775Z,50.38
2018-09-13T08:03:14.193Z,50.17
2018-09-13T08:13:16.576Z,50.35
2018-09-13T08:23:19.042Z,50.41
2018-09-13T08:33:21.697Z,49.50
2018-09-13T08:43:24.087Z,49.42
2018-09-13T08:53:26.583Z,49.95
2018-09-13T09:03:29.123Z,50.08
2018-09-13T09:13:31.620Z,50.62
2018-09-13T09:23:34.403Z,49.53
2018-09-13T09:33:36.925Z,50.23
2018-09-13T09:43:39.376Z,51.62
2018-09-13T09:53:41.999Z,49.96
2018-09-13T10:03:44.421Z,49.74
2018-09-13T10:13:46.976Z,50.69
2018-09-13T10:23:55.070Z,51.67
2018-09-13T10:34:02.931Z,51.70
2018-09-13T10:44:10.831Z,52.53
2018-09-13T10:54:18.814Z,52.09
2018-09-13T11:04:21.374Z,52.27
2018-09-13T11:14:28.096Z,51.48
2018-09-13T11:24:30.495Z,50.93
2018-09-13T11:34:33.964Z,50.72
2018-09-13T11:44:36.429Z,51.18
2018-09-13T11:54:38.815Z,49.75
2018-09-13T12:04:41.159Z,52.34
2018-09-13T12:14:44.353Z,50.59
2018-09-13T12:24:46.867Z,52.27
2018-09-13T12:34:49.427Z,54.43
2018-09-13T12:44:51.956Z,56.81
2018-09-13T12:54:54.408Z,59.89
2018-09-13T13:04:57.023Z,55.22
2018-09-13T13:14:59.431Z,53.70
2018-09-13T13:25:02.012Z,53.97
2018-09-13T13:35:04.456Z,54.27
2018-09-13T13:45:06.868Z,55.45
2018-09-13T13:55:09.301Z,53.09
2018-09-13T14:05:11.680Z,53.55
2018-09-13T14:15:14.192Z,53.59
2018-09-13T14:25:16.752Z,51.11
2018-09-13T14:35:19.294Z,50.78
2018-09-13T14:45:21.749Z,50.63
2018-09-13T14:55:24.312Z,50.45
2018-09-13T15:05:26.874Z,52.23
2018-09-13T15:15:29.368Z,54.95
2018-09-13T15:25:31.893Z,52.42
2018-09-13T15:35:34.448Z,50.30
2018-09-13T15:45:37.064Z,51.34
2018-09-13T15:55:39.454Z,52.14
2018-09-13T16:05:42.028Z,52.90
2018-09-13T16:15:44.476Z,50.03
2018-09-13T16:25:47.149Z,49.17
2018-09-13T16:35:51.110Z,48.95
2018-09-13T16:45:53.488Z,48.99
2018-09-13T16:55:56.032Z,49.01
2018-09-13T17:05:58.655Z,48.83
2018-09-13T17:16:01.309Z,50.23
2018-09-13T17:26:03.964Z,49.76
2018-09-13T17:36:06.616Z,49.91
2018-09-13T17:46:09.004Z,48.86
2018-09-13T17:56:11.785Z,48.70
2018-09-13T18:06:14.230Z,49.84
2018-09-13T18:16:16.740Z,50.17
2018-09-13T18:26:19.197Z,49.64
2018-09-13T18:36:21.905Z,48.55
2018-09-13T18:46:24.505Z,48.22
2018-09-13T18:56:27.784Z,51.26
2018-09-13T19:06:30.313Z,52.19
2018-09-13T19:16:32.936Z,51.73
2018-09-13T19:26:35.653Z,51.61
2018-09-13T19:36:38.490Z,50.60
2018-09-13T19:46:41.186Z,50.99
2018-09-13T19:56:43.873Z,49.75
2018-09-13T20:06:46.450Z,50.37
2018-09-13T20:16:48.898Z,50.19
2018-09-13T20:26:51.486Z,50.12
2018-09-13T20:36:54.028Z,49.29
2018-09-13T20:46:56.567Z,49.94
2018-09-13T20:56:59.204Z,49.09
2018-09-13T21:07:01.724Z,50.76
2018-09-13T21:17:04.234Z,50.83
2018-09-13T21:27:06.611Z,50.85
2018-09-13T21:37:09.079Z,50.82
2018-09-13T21:47:11.644Z,49.87
2018-09-13T21:57:14.050Z,49.73
2018-09-13T22:07:16.676Z,50.77
2018-09-13T22:17:19.891Z,49.51
2018-09-13T22:27:22.459Z,50.48
2018-09-13T22:37:25.072Z,50.31
2018-09-13T22:47:27.540Z,50.23
2018-09-13T22:57:30.021Z,50.33
2018-09-13T23:07:32.755Z,49.50
2018-09-13T23:17:36.943Z,50.16
2018-09-13T23:27:41.833Z,49.38
2018-09-13T23:37:44.989Z,49.30
2018-09-13T23:47:47.418Z,50.00
2018-09-13T23:57:50.498Z,49.04
